Time;durP1;ratioP1;P1;durP2;ratioP2;P2;SDS_P1;SDS_P2;PMS_P1;PMS_P2;Temp;Humidity;BMP_temperature;BMP_pressure;BME280_temperature;BME280_humidity;BME280_pressure;Samples;Min_cycle;Max_cycle;Signal;HPM_P1;HPM_P2
2021/11/01 00:02:09;;;;;;;5.13;4.73;;;13.20;56.40;;;;;;5037088;28;20200;-92
2021/11/01 00:04:35;;;;;;;5.20;4.80;;;13.20;56.00;;;;;;5036092;28;20540;-93
2021/11/01 00:07:01;;;;;;;5.87;5.27;;;13.30;56.40;;;;;;5036427;28;20184;-93
2021/11/01 00:09:29;;;;;;;4.90;4.13;;;13.30;56.20;;;;;;5036847;28;20282;-93
2021/11/01 00:11:55;;;;;;;4.97;4.50;;;13.30;56.80;;;;;;5036660;28;20419;-93
2021/11/01 00:14:22;;;;;;;4.30;3.80;;;13.30;56.70;;;;;;5036491;28;20420;-93
2021/11/01 00:16:49;;;;;;;5.03;3.80;;;13.40;56.30;;;;;;5036228;28;20489;-92
2021/11/01 00:19:14;;;;;;;3.50;3.20;;;13.40;56.40;;;;;;5037213;28;20920;-92
2021/11/01 00:21:40;;;;;;;3.70;3.40;;;13.50;55.80;;;;;;5037795;28;20447;-92
2021/11/01 00:24:06;;;;;;;4.17;3.33;;;13.50;55.70;;;;;;5037575;28;20235;-92
2021/11/01 00:26:32;;;;;;;3.13;2.83;;;13.60;55.70;;;;;;5038083;28;20547;-92
2021/11/01 00:29:02;;;;;;;3.10;2.80;;;13.60;55.10;;;;;;5049658;28;20185;-93
2021/11/01 00:31:29;;;;;;;3.67;2.50;;;13.70;55.40;;;;;;5048474;28;20430;-93
2021/11/01 00:33:55;;;;;;;1.97;1.87;;;14.00;54.90;;;;;;5036450;28;20958;-93
2021/11/01 00:36:21;;;;;;;1.47;1.37;;;14.20;56.00;;;;;;5035594;28;20493;-92
2021/11/01 00:38:48;;;;;;;1.60;1.50;;;14.50;56.10;;;;;;5035739;28;20743;-91
2021/11/01 00:41:15;;;;;;;1.47;1.37;;;14.90;56.60;;;;;;5035920;28;20458;-92
2021/11/01 00:43:40;;;;;;;1.50;1.40;;;15.00;56.40;;;;;;5036238;28;20419;-92
2021/11/01 00:46:06;;;;;;;1.47;1.20;;;15.10;56.40;;;;;;5035125;28;20481;-92
2021/11/01 00:48:32;;;;;;;1.60;1.20;;;15.20;56.00;;;;;;5035993;28;20676;-92
2021/11/01 00:50:58;;;;;;;1.87;1.77;;;15.20;56.00;;;;;;5035727;28;20190;-91
2021/11/01 00:53:29;;;;;;;1.40;1.30;;;15.30;56.10;;;;;;5035273;28;20260;-91
2021/11/01 00:55:56;;;;;;;1.40;1.30;;;15.30;56.10;;;;;;5036021;28;20443;-91
2021/11/01 00:58:22;;;;;;;1.23;1.13;;;15.30;56.10;;;;;;5035134;28;20458;-92
2021/11/01 01:00:49;;;;;;;2.13;1.27;;;15.30;56.10;;;;;;5034918;28;20813;-92
2021/11/01 01:03:15;;;;;;;2.70;1.30;;;15.30;56.10;;;;;;5035529;28;20432;-92
2021/11/01 01:05:43;;;;;;;1.90;1.30;;;15.30;56.10;;;;;;5034755;28;20823;-92
2021/11/01 01:08:15;;;;;;;4.30;1.30;;;15.30;56.40;;;;;;5034632;28;20447;-92
2021/11/01 01:10:41;;;;;;;1.17;1.03;;;15.40;56.60;;;;;;5034398;28;20419;-92
2021/11/01 01:13:08;;;;;;;1.23;1.00;;;15.40;56.10;;;;;;5035418;28;20469;-92
2021/11/01 01:15:43;;;;;;;1.67;1.33;;;15.50;56.80;;;;;;5035321;28;20935;-93
2021/11/01 01:18:15;;;;;;;3.37;1.30;;;15.50;56.60;;;;;;5034449;28;20403;-92
2021/11/01 01:20:42;;;;;;;2.50;1.37;;;15.50;56.80;;;;;;5034370;28;20976;-92
2021/11/01 01:23:08;;;;;;;1.63;0.80;;;15.50;57.10;;;;;;5035481;28;20498;-92
2021/11/01 01:25:41;;;;;;;1.27;1.10;;;15.60;56.90;;;;;;5034549;28;20419;-93
2021/11/01 01:28:07;;;;;;;0.83;0.83;;;15.60;57.00;;;;;;5034107;28;20185;-90
2021/11/01 01:30:33;;;;;;;5.23;1.03;;;15.60;57.10;;;;;;5034402;28;20427;-92
2021/11/01 01:33:02;;;;;;;1.17;1.07;;;15.60;57.00;;;;;;5034905;28;20423;-92
2021/11/01 01:35:30;;;;;;;0.97;0.87;;;15.60;57.20;;;;;;5034738;28;20482;-93
2021/11/01 01:37:56;;;;;;;1.23;1.13;;;15.60;57.30;;;;;;5034082;28;20428;-92
2021/11/01 01:40:22;;;;;;;1.77;1.20;;;15.60;57.80;;;;;;5035278;28;20814;-93
2021/11/01 01:42:48;;;;;;;1.00;1.00;;;15.60;57.90;;;;;;5034855;28;20473;-93
2021/11/01 01:45:14;;;;;;;1.50;1.40;;;15.70;58.10;;;;;;5033969;28;20181;-93
2021/11/01 01:47:41;;;;;;;1.50;1.07;;;15.60;58.20;;;;;;5035037;28;20419;-92
2021/11/01 01:50:09;;;;;;;1.50;1.10;;;15.70;58.00;;;;;;5036130;28;20173;-93
2021/11/01 01:52:35;;;;;;;1.93;1.83;;;15.70;57.00;;;;;;5034425;28;20920;-93
2021/11/01 01:55:01;;;;;;;2.20;1.73;;;15.60;55.50;;;;;;5034118;28;20412;-93
2021/11/01 01:57:26;;;;;;;3.93;1.80;;;15.20;56.40;;;;;;5033643;28;20185;-93
2021/11/01 01:59:53;;;;;;;2.33;1.87;;;15.00;58.00;;;;;;5036267;28;20259;-92
2021/11/01 02:02:19;;;;;;;1.70;1.60;;;14.90;58.40;;;;;;5034434;28;20209;-91
2021/11/01 02:04:45;;;;;;;3.10;1.50;;;14.80;58.30;;;;;;5037260;28;20429;-91
2021/11/01 02:07:33;;;;;;;1.30;1.20;;;14.60;57.80;;;;;;5035894;28;20310;-91
2021/11/01 02:10:10;;;;;;;3.27;1.10;;;14.40;55.30;;;;;;5036633;28;20173;-91
2021/11/01 02:12:44;;;;;;;3.57;0.97;;;14.30;52.40;;;;;;5034170;28;20423;-91
2021/11/01 02:15:19;;;;;;;1.00;0.70;;;14.10;51.80;;;;;;5034669;28;20450;-92
2021/11/01 02:17:48;;;;;;;3.00;0.90;;;14.00;51.10;;;;;;5034008;28;20419;-93
2021/11/01 02:20:52;;;;;;;0.90;0.70;;;13.90;51.30;;;;;;5033463;28;20443;-92
2021/11/01 02:23:40;;;;;;;1.50;1.00;;;13.70;50.30;;;;;;5033649;28;20753;-93
2021/11/01 02:26:09;;;;;;;1.73;1.13;;;13.60;50.10;;;;;;5034996;28;20422;-91
2021/11/01 02:28:38;;;;;;;1.17;0.90;;;13.60;50.70;;;;;;5033490;28;20426;-92
2021/11/01 02:31:06;;;;;;;2.90;0.90;;;13.50;51.60;;;;;;5033499;28;20419;-91
2021/11/01 02:33:32;;;;;;;1.20;0.77;;;13.30;52.50;;;;;;5033192;28;20510;-92
2021/11/01 02:35:59;;;;;;;6.47;2.23;;;13.20;53.70;;;;;;5033223;28;20427;-91
2021/11/01 02:38:33;;;;;;;1.40;1.30;;;13.10;54.10;;;;;;5033307;28;20426;-93
2021/11/01 02:41:04;;;;;;;2.17;0.90;;;13.10;54.10;;;;;;5033441;28;20443;-93
2021/11/01 02:43:33;;;;;;;2.13;1.17;;;13.00;56.00;;;;;;5034517;28;20427;-92
2021/11/01 02:45:59;;;;;;;2.43;1.10;;;12.90;56.10;;;;;;5033157;28;20424;-92
2021/11/01 02:48:24;;;;;;;3.03;0.90;;;12.80;57.00;;;;;;5034649;28;20446;-92
2021/11/01 02:50:50;;;;;;;3.03;1.43;;;12.80;56.80;;;;;;5033521;28;20415;-92
2021/11/01 02:53:16;;;;;;;1.90;1.00;;;12.70;57.70;;;;;;5033470;28;20597;-93
2021/11/01 02:55:41;;;;;;;4.33;0.70;;;12.70;58.50;;;;;;5033193;28;20181;-92
2021/11/01 02:58:07;;;;;;;3.70;0.87;;;12.70;58.80;;;;;;5032994;28;20195;-92
2021/11/01 03:00:34;;;;;;;2.17;1.03;;;12.70;56.40;;;;;;5032887;28;20197;-84
2021/11/01 03:03:00;;;;;;;1.50;0.90;;;12.60;57.80;;;;;;5031346;28;20423;-84
2021/11/01 03:05:30;;;;;;;5.23;1.17;;;12.60;58.50;;;;;;5031264;28;20789;-84
2021/11/01 03:07:57;;;;;;;3.13;0.90;;;12.60;60.40;;;;;;5031006;28;20455;-85
2021/11/01 03:10:24;;;;;;;1.77;1.00;;;12.50;59.60;;;;;;5034001;28;20469;-85
2021/11/01 03:12:52;;;;;;;2.47;1.30;;;12.50;59.70;;;;;;5035131;28;20507;-85
2021/11/01 03:15:21;;;;;;;3.50;0.80;;;12.40;60.70;;;;;;5035148;28;20427;-85
2021/11/01 03:17:52;;;;;;;3.47;1.10;;;12.30;60.90;;;;;;5036101;28;20407;-85
2021/11/01 03:20:23;;;;;;;1.73;0.77;;;12.30;61.50;;;;;;5034943;28;20431;-85
2021/11/01 03:22:53;;;;;;;2.87;0.80;;;12.30;61.30;;;;;;5035133;28;20457;-85
2021/11/01 03:25:32;;;;;;;1.33;0.77;;;12.30;62.50;;;;;;5035118;28;20423;-85
2021/11/01 03:28:01;;;;;;;2.63;1.00;;;12.20;61.80;;;;;;5035028;28;20416;-85
2021/11/01 03:30:28;;;;;;;1.50;0.87;;;12.20;62.20;;;;;;5035163;28;20835;-85
2021/11/01 03:32:54;;;;;;;1.40;0.77;;;12.10;62.90;;;;;;5035356;28;20777;-85
2021/11/01 03:35:20;;;;;;;2.40;1.20;;;12.00;63.50;;;;;;5035135;28;20505;-85
2021/11/01 03:37:51;;;;;;;2.67;0.90;;;11.90;66.00;;;;;;5034885;28;20458;-86
2021/11/01 03:40:19;;;;;;;1.37;1.00;;;11.80;67.80;;;;;;5034714;28;20644;-85
2021/11/01 03:42:47;;;;;;;1.57;0.70;;;11.70;68.00;;;;;;5034599;28;20430;-85
2021/11/01 03:45:13;;;;;;;5.63;1.07;;;11.70;71.00;;;;;;5035026;28;20453;-86
2021/11/01 03:47:44;;;;;;;1.33;0.73;;;11.60;72.70;;;;;;5034549;28;20473;-84
2021/11/01 03:52:53;;;;;;;1.63;1.00;;;11.40;70.90;;;;;;5036086;28;20399;-84
2021/11/01 03:55:21;;;;;;;2.23;0.97;;;11.40;74.40;;;;;;5034602;28;20419;-84
2021/11/01 03:57:48;;;;;;;0.90;0.63;;;11.40;73.90;;;;;;5034281;28;20838;-84
2021/11/01 04:00:14;;;;;;;2.50;0.80;;;11.30;75.80;;;;;;5034621;28;20487;-85
2021/11/01 04:02:40;;;;;;;5.97;1.10;;;11.40;76.60;;;;;;5034302;28;20412;-85
2021/11/01 04:05:06;;;;;;;1.43;1.10;;;11.30;75.80;;;;;;5034357;28;20911;-85
2021/11/01 04:07:33;;;;;;;1.20;0.83;;;11.30;77.70;;;;;;5034002;28;20450;-86
2021/11/01 04:10:00;;;;;;;4.83;1.30;;;11.30;77.00;;;;;;5034488;28;20427;-84
2021/11/01 04:12:26;;;;;;;1.63;0.90;;;11.30;77.40;;;;;;5034380;28;20442;-85
2021/11/01 04:15:11;;;;;;;4.87;0.70;;;11.30;74.50;;;;;;5035560;28;20893;-85
2021/11/01 04:17:42;;;;;;;1.50;1.13;;;11.30;75.00;;;;;;5033904;28;20766;-85
2021/11/01 04:22:42;;;;;;;3.90;1.77;;;11.20;79.70;;;;;;5034660;28;21007;-84
2021/11/01 04:25:09;;;;;;;2.17;1.40;;;11.20;80.80;;;;;;5033943;28;20408;-85
2021/11/01 04:27:36;;;;;;;2.67;1.30;;;11.20;81.50;;;;;;5033944;28;20418;-84
2021/11/01 04:30:03;;;;;;;3.53;0.90;;;11.20;83.50;;;;;;5034027;28;20427;-84
2021/11/01 04:32:35;;;;;;;6.87;1.50;;;11.20;85.00;;;;;;5033809;28;20977;-84
2021/11/01 04:54:12;;;;;;;1.40;1.00;;;11.10;84.60;;;;;;5034831;28;20457;-84
2021/11/01 04:56:38;;;;;;;2.00;1.30;;;11.10;85.10;;;;;;5033310;28;20419;-84
2021/11/01 04:59:07;;;;;;;2.73;1.43;;;11.20;85.10;;;;;;5033218;28;20411;-85
2021/11/01 05:01:39;;;;;;;3.10;1.20;;;11.10;86.50;;;;;;5033268;28;20219;-85
2021/11/01 05:04:11;;;;;;;1.80;1.40;;;11.10;87.50;;;;;;5033449;28;20411;-85
2021/11/01 05:06:42;;;;;;;7.47;2.10;;;11.10;88.40;;;;;;5033326;28;20503;-92
2021/11/01 05:09:15;;;;;;;3.20;1.87;;;11.20;89.10;;;;;;5036520;28;20416;-92
2021/11/01 05:11:54;;;;;;;6.03;1.57;;;11.20;88.10;;;;;;5036415;28;20979;-93
2021/11/01 05:14:35;;;;;;;2.00;1.10;;;11.20;87.60;;;;;;5037124;28;20456;-93
2021/11/01 05:19:50;;;;;;;4.07;1.50;;;11.20;87.20;;;;;;5036549;28;20559;-93
2021/11/01 05:24:54;;;;;;;3.73;1.10;;;11.10;86.10;;;;;;5037208;28;20404;-92
2021/11/01 05:27:34;;;;;;;2.93;1.37;;;11.20;87.20;;;;;;5035682;28;20622;-91
2021/11/01 05:30:05;;;;;;;2.47;1.47;;;11.10;88.80;;;;;;5035666;28;20400;-91
2021/11/01 05:32:32;;;;;;;2.70;1.03;;;11.10;89.60;;;;;;5034672;28;20426;-93
2021/11/01 05:34:58;;;;;;;2.33;1.30;;;11.20;90.10;;;;;;5035504;28;20459;-92
2021/11/01 05:37:24;;;;;;;5.10;1.23;;;11.20;90.10;;;;;;5034508;28;20938;-93
2021/11/01 05:39:50;;;;;;;4.27;1.17;;;11.20;90.10;;;;;;5034347;28;20204;-91
2021/11/01 05:42:16;;;;;;;2.00;1.20;;;11.20;90.50;;;;;;5034914;28;20243;-92
2021/11/01 05:44:42;;;;;;;1.70;1.10;;;11.20;90.40;;;;;;5034954;28;21108;-91
2021/11/01 05:47:09;;;;;;;3.47;1.17;;;11.10;90.00;;;;;;5033313;28;20431;-87
2021/11/01 05:49:36;;;;;;;2.73;1.20;;;11.20;90.40;;;;;;5032463;28;20785;-84
2021/11/01 05:52:04;;;;;;;2.37;1.67;;;11.10;90.10;;;;;;5033764;28;20836;-90
2021/11/01 05:54:32;;;;;;;1.77;1.27;;;11.20;89.70;;;;;;5034571;28;20834;-91
2021/11/01 05:57:13;;;;;;;2.30;1.30;;;11.10;87.80;;;;;;5033463;28;20510;-91
2021/11/01 06:07:24;;;;;;;2.83;2.63;;;11.10;90.20;;;;;;5033562;28;20406;-85
2021/11/01 06:10:08;;;;;;;3.70;3.40;;;11.00;90.40;;;;;;5032247;28;20776;-86
2021/11/01 06:15:18;;;;;;;1.90;1.80;;;11.00;90.70;;;;;;5033502;28;20411;-85
2021/11/01 06:17:45;;;;;;;1.77;1.37;;;11.00;91.50;;;;;;5031935;28;20419;-86
2021/11/01 06:20:13;;;;;;;3.40;1.30;;;11.00;91.40;;;;;;5048472;28;20279;-85
2021/11/01 06:22:39;;;;;;;1.87;1.43;;;11.00;91.60;;;;;;5031971;28;20465;-86
2021/11/01 06:25:06;;;;;;;1.73;1.60;;;11.10;91.30;;;;;;5032303;28;20454;-87
2021/11/01 06:27:34;;;;;;;5.77;1.70;;;11.10;91.40;;;;;;5032470;28;20779;-85
2021/11/01 06:32:36;;;;;;;2.30;1.60;;;11.00;91.30;;;;;;5038035;28;20418;-86
2021/11/01 06:43:24;;;;;;;4.00;1.83;;;10.90;86.30;;;;;;5033386;28;20414;-86
2021/11/01 06:54:18;;;;;;;1.90;1.53;;;10.70;79.30;;;;;;5034072;28;20391;-91
2021/11/01 07:16:01;;;;;;;1.50;1.40;;;10.60;82.40;;;;;;5034904;28;20437;-90
2021/11/01 07:18:33;;;;;;;1.43;1.33;;;10.60;81.20;;;;;;5032802;28;20757;-88
2021/11/01 08:22:03;;;;;;;1.10;1.00;;;10.40;83.20;;;;;;5036263;28;20463;-91
2021/11/01 08:24:07;;;;;;;2.70;2.13;;;10.40;82.90;;;;;;5035894;28;20446;-91
2021/11/01 08:37:32;;;;;;;1.80;1.47;;;10.40;84.10;;;;;;5039445;28;20396;-95
2021/11/01 08:40:08;;;;;;;2.27;1.47;;;10.40;83.50;;;;;;5038655;28;20415;-95
2021/11/01 08:48:06;;;;;;;1.50;1.40;;;10.40;82.90;;;;;;5039916;28;20422;-96
2021/11/01 09:19:55;;;;;;;1.10;1.10;;;11.20;91.50;;;;;;5042007;28;20438;-93
2021/11/01 09:27:36;;;;;;;3.50;1.80;;;10.90;73.90;;;;;;5035957;28;20476;-87
2021/11/01 09:41:03;;;;;;;1.80;1.33;;;10.60;74.10;;;;;;5035152;28;20404;-90
2021/11/01 09:43:31;;;;;;;1.53;1.30;;;10.60;73.70;;;;;;5046376;28;20455;-91
2021/11/01 09:45:58;;;;;;;3.00;1.63;;;10.60;74.30;;;;;;5051632;28;20827;-91
2021/11/01 09:48:25;;;;;;;1.73;1.63;;;10.70;76.00;;;;;;5049829;28;20545;-92
2021/11/01 09:50:51;;;;;;;2.60;1.83;;;10.70;76.20;;;;;;5030815;28;20428;-91
2021/11/01 09:53:22;;;;;;;3.67;1.80;;;10.70;75.50;;;;;;5048606;28;20941;-91
2021/11/01 09:56:06;;;;;;;2.23;1.30;;;10.70;75.50;;;;;;5033769;28;20404;-91
2021/11/01 10:01:22;;;;;;;2.30;1.10;;;10.70;75.80;;;;;;5035226;28;20451;-92
2021/11/01 10:03:50;;;;;;;1.37;1.27;;;10.70;75.80;;;;;;5033608;28;20400;-92
2021/11/01 10:06:20;;;;;;;1.10;1.00;;;10.70;76.00;;;;;;5032016;28;20559;-91
2021/11/01 10:08:54;;;;;;;1.67;1.00;;;10.70;75.20;;;;;;5046074;28;20420;-93
2021/11/01 10:11:26;;;;;;;2.10;1.47;;;10.70;75.20;;;;;;5052203;28;20502;-92
2021/11/01 10:14:00;;;;;;;1.30;1.20;;;10.70;76.50;;;;;;5052082;28;20574;-92
2021/11/01 10:19:43;;;;;;;1.27;1.17;;;10.70;74.90;;;;;;5032109;28;20439;-87
2021/11/01 10:22:33;;;;;;;1.23;1.20;;;10.70;74.70;;;;;;5031862;28;20460;-91
2021/11/01 10:24:58;;;;;;;3.00;1.70;;;10.70;73.60;;;;;;5017822;28;20421;-89
2021/11/01 10:27:30;;;;;;;0.80;0.80;;;10.80;73.70;;;;;;5034194;28;20414;-91
2021/11/01 10:29:57;;;;;;;2.50;1.30;;;10.80;70.60;;;;;;5033912;28;20200;-92
2021/11/01 10:32:28;;;;;;;1.40;1.30;;;10.80;71.00;;;;;;5037694;28;20416;-89
2021/11/01 10:35:17;;;;;;;1.77;1.40;;;10.80;71.00;;;;;;5037116;28;20419;-92
2021/11/01 10:57:10;;;;;;;3.80;1.50;;;10.90;71.10;;;;;;5034392;28;20419;-90
2021/11/01 11:13:15;;;;;;;1.20;1.10;;;10.90;69.60;;;;;;5035273;28;20432;-87
2021/11/01 11:15:41;;;;;;;1.57;1.40;;;11.00;68.00;;;;;;5034211;28;20403;-90
2021/11/01 11:26:26;;;;;;;1.47;1.37;;;11.10;69.10;;;;;;5034640;28;20438;-89
2021/11/01 11:49:15;;;;;;;1.63;1.53;;;11.20;66.90;;;;;;5040008;28;20434;-91
2021/11/01 11:52:03;;;;;;;2.10;1.97;;;11.20;66.60;;;;;;5038771;28;20418;-90
2021/11/01 11:54:46;;;;;;;2.70;1.33;;;11.20;66.50;;;;;;5038086;28;20446;-91
2021/11/01 11:57:29;;;;;;;3.60;3.30;;;11.20;67.50;;;;;;5037826;28;20413;-88
2021/11/01 11:59:56;;;;;;;2.10;1.90;;;11.10;67.90;;;;;;5037257;28;20423;-89
2021/11/01 12:02:42;;;;;;;1.43;1.20;;;11.10;66.40;;;;;;5037256;28;20818;-90
2021/11/01 12:05:15;;;;;;;1.43;1.33;;;11.20;66.30;;;;;;5037238;28;20412;-90
2021/11/01 12:07:49;;;;;;;1.47;1.37;;;11.10;65.20;;;;;;5038026;28;20434;-91
2021/11/01 12:10:37;;;;;;;1.73;1.53;;;11.20;66.60;;;;;;5037923;28;20411;-90
2021/11/01 12:19:17;;;;;;;2.40;2.20;;;11.30;66.60;;;;;;5018149;28;20458;-89
2021/11/01 12:21:45;;;;;;;2.17;2.07;;;11.30;66.70;;;;;;5035070;28;20533;-90
2021/11/01 12:24:20;;;;;;;1.40;1.30;;;11.30;67.30;;;;;;5035188;28;20439;-89
2021/11/01 12:26:46;;;;;;;1.77;1.60;;;11.30;65.80;;;;;;5033906;28;20447;-89
2021/11/01 12:29:15;;;;;;;1.43;1.20;;;11.30;67.80;;;;;;5033048;28;20411;-88
2021/11/01 12:31:43;;;;;;;2.93;1.23;;;11.30;66.50;;;;;;5032862;28;20173;-89
2021/11/01 12:34:20;;;;;;;2.70;1.53;;;11.30;64.60;;;;;;5033324;28;20415;-89
2021/11/01 12:37:13;;;;;;;2.00;1.80;;;11.20;64.30;;;;;;5032874;28;20415;-89
2021/11/01 12:39:55;;;;;;;1.80;1.70;;;11.20;64.90;;;;;;5033424;28;20926;-89
2021/11/01 12:58:58;;;;;;;1.47;1.37;;;11.30;63.80;;;;;;5035909;28;20846;-89
2021/11/01 13:01:27;;;;;;;1.83;1.73;;;11.30;64.20;;;;;;5032662;28;20561;-90
2021/11/01 13:04:07;;;;;;;1.60;1.50;;;11.40;65.30;;;;;;5046289;28;20482;-89
2021/11/01 13:07:13;;;;;;;1.93;1.40;;;11.40;64.50;;;;;;5039164;28;20443;-90
2021/11/01 13:09:29;;;;;;;1.97;1.87;;;11.40;64.80;;;;;;5023440;28;20965;-90
2021/11/01 13:12:24;;;;;;;3.63;1.87;;;11.40;61.90;;;;;;5050029;28;20943;-89
2021/11/01 13:20:05;;;;;;;3.87;2.80;;;11.50;64.50;;;;;;5028317;28;20615;-89
2021/11/01 13:22:41;;;;;;;3.47;3.17;;;11.40;63.90;;;;;;5032707;28;20502;-89
2021/11/01 13:28:18;;;;;;;3.67;2.10;;;11.40;62.30;;;;;;5034885;28;20415;-86
2021/11/01 13:38:53;;;;;;;2.03;1.40;;;11.50;62.40;;;;;;5028009;28;20482;-89
2021/11/01 13:41:27;;;;;;;1.70;1.60;;;11.50;61.50;;;;;;5047424;28;20463;-88
2021/11/01 13:44:05;;;;;;;2.67;2.07;;;11.50;61.40;;;;;;5043012;28;20834;-89
2021/11/01 13:46:30;;;;;;;2.97;2.70;;;11.50;60.60;;;;;;5039906;28;20412;-89
2021/11/01 13:48:58;;;;;;;2.30;2.10;;;11.50;60.60;;;;;;5033666;28;20815;-89
2021/11/01 13:51:29;;;;;;;1.90;1.80;;;11.50;61.00;;;;;;5050312;28;20192;-87
2021/11/01 13:56:36;;;;;;;2.30;2.10;;;11.50;60.50;;;;;;5034316;28;20511;-88
2021/11/01 14:13:35;;;;;;;2.07;1.97;;;11.50;59.60;;;;;;5034063;28;20398;-91
2021/11/01 14:59:39;;;;;;;2.00;1.90;;;11.60;60.00;;;;;;5022326;28;20863;-86
2021/11/01 15:22:51;;;;;;;3.97;2.50;;;11.60;58.60;;;;;;5064756;28;20465;-90
2021/11/01 15:28:22;;;;;;;3.67;1.87;;;11.60;58.30;;;;;;5061743;28;20502;-89
2021/11/01 15:38:53;;;;;;;3.30;3.00;;;11.60;58.90;;;;;;5059199;28;20415;-91
2021/11/01 16:18:33;;;;;;;2.53;2.33;;;11.50;61.20;;;;;;5022270;28;20424;-93
2021/11/01 16:21:00;;;;;;;2.67;2.30;;;11.50;60.70;;;;;;5018009;28;20471;-92
2021/11/01 16:23:35;;;;;;;3.47;2.50;;;11.50;60.20;;;;;;5017446;28;20420;-92
2021/11/01 16:26:24;;;;;;;2.50;2.30;;;11.50;61.50;;;;;;5017237;28;20900;-93
2021/11/01 16:29:43;;;;;;;6.47;2.90;;;11.50;61.80;;;;;;5017169;28;20446;-93
2021/11/01 16:39:43;;;;;;;3.43;3.13;;;11.40;61.40;;;;;;5017847;28;20172;-89
2021/11/01 16:42:09;;;;;;;3.47;3.17;;;11.50;60.70;;;;;;5016473;28;20977;-91
2021/11/01 16:44:43;;;;;;;3.40;3.10;;;11.50;59.90;;;;;;5015470;28;20412;-89
2021/11/01 16:47:09;;;;;;;5.00;3.23;;;11.50;59.70;;;;;;5013750;28;20810;-89
2021/11/01 16:49:34;;;;;;;3.40;3.10;;;11.50;61.40;;;;;;5014279;28;20424;-88
2021/11/01 16:52:11;;;;;;;5.07;2.90;;;11.50;60.00;;;;;;5015925;28;20419;-90
2021/11/01 16:54:37;;;;;;;3.67;2.37;;;11.50;59.50;;;;;;5014835;28;20169;-90
2021/11/01 16:59:51;;;;;;;3.07;2.87;;;11.40;61.50;;;;;;5017018;28;20209;-90
2021/11/01 17:04:57;;;;;;;3.70;2.90;;;11.40;61.70;;;;;;5016080;28;20444;-89
2021/11/01 18:38:07;;;;;;;5.07;4.57;;;11.00;62.20;;;;;;5026790;28;20528;-89
2021/11/01 18:41:39;;;;;;;4.97;4.43;;;11.00;63.50;;;;;;5031458;28;20431;-89
2021/11/01 18:46:26;;;;;;;3.60;3.33;;;11.00;62.70;;;;;;5032473;28;20487;-87
2021/11/01 18:51:48;;;;;;;5.40;4.30;;;11.00;62.00;;;;;;5025968;28;20441;-86
2021/11/01 18:54:21;;;;;;;4.70;4.30;;;11.00;61.90;;;;;;5031716;28;20494;-88
2021/11/01 18:56:49;;;;;;;5.20;4.47;;;11.00;61.40;;;;;;5031257;28;20415;-89
2021/11/01 18:59:16;;;;;;;4.63;4.23;;;10.90;61.90;;;;;;5030706;28;20416;-86
2021/11/01 19:01:50;;;;;;;6.43;5.83;;;10.90;62.00;;;;;;5030936;28;20501;-86
2021/11/01 19:04:41;;;;;;;4.33;3.93;;;10.80;62.30;;;;;;5027739;28;20513;-86
2021/11/01 19:07:20;;;;;;;4.10;3.70;;;10.70;63.60;;;;;;5031838;28;20404;-86
2021/11/01 21:27:06;;;;;;;4.70;2.50;;;9.20;64.10;;;;;;5015352;28;20986;-92
2021/11/01 21:29:36;;;;;;;2.33;2.20;;;9.30;63.90;;;;;;5030712;28;20417;-92
2021/11/01 21:32:03;;;;;;;2.93;2.10;;;9.20;63.80;;;;;;5031437;28;20479;-91
2021/11/01 21:34:35;;;;;;;2.57;2.33;;;9.20;64.70;;;;;;5031630;28;20455;-91
2021/11/01 21:37:02;;;;;;;2.23;2.00;;;9.20;63.40;;;;;;5033641;28;20479;-90
2021/11/01 21:39:28;;;;;;;2.57;2.20;;;9.20;64.30;;;;;;5059536;28;20982;-91
2021/11/01 21:41:56;;;;;;;3.97;2.00;;;9.20;65.60;;;;;;5039743;28;20819;-86
2021/11/01 21:44:22;;;;;;;1.90;1.70;;;9.20;65.50;;;;;;5034133;28;20408;-91
2021/11/01 21:46:48;;;;;;;2.37;2.17;;;9.20;65.70;;;;;;5034314;28;20422;-91
2021/11/01 21:49:14;;;;;;;1.90;1.80;;;9.10;65.10;;;;;;5033549;28;20172;-91
2021/11/01 21:51:41;;;;;;;1.90;1.80;;;9.20;65.10;;;;;;5034888;28;20779;-88
2021/11/01 21:54:24;;;;;;;2.20;1.90;;;9.20;65.70;;;;;;5036583;28;20412;-93
2021/11/01 21:56:56;;;;;;;1.50;1.40;;;9.00;65.00;;;;;;5035071;28;20422;-92
2021/11/01 22:19:11;;;;;;;1.97;1.87;;;8.90;65.80;;;;;;5036344;28;20442;-92
2021/11/01 22:24:25;;;;;;;2.03;1.90;;;8.90;66.50;;;;;;5035932;28;20399;-93
2021/11/01 22:38:26;;;;;;;4.23;1.50;;;8.80;67.70;;;;;;5038503;28;20399;-95
2021/11/01 22:41:41;;;;;;;2.00;1.90;;;8.70;66.70;;;;;;5050972;28;20504;-93
2021/11/01 22:44:07;;;;;;;2.63;1.70;;;8.80;66.50;;;;;;5031707;28;20437;-92
2021/11/01 22:46:44;;;;;;;3.17;1.83;;;8.80;66.70;;;;;;5035029;28;20423;-91
2021/11/01 22:57:22;;;;;;;5.40;2.40;;;9.00;65.90;;;;;;5015669;28;20435;-91
2021/11/01 22:59:48;;;;;;;2.43;1.90;;;9.10;65.50;;;;;;5050479;28;20415;-92
2021/11/01 23:02:14;;;;;;;2.17;1.73;;;9.10;64.40;;;;;;5035869;28;20451;-92
2021/11/01 23:31:46;;;;;;;1.47;1.33;;;9.40;63.20;;;;;;5039246;28;20819;-92
2021/11/01 23:34:15;;;;;;;1.80;1.70;;;9.50;63.50;;;;;;5055046;28;20415;-92
2021/11/01 23:36:42;;;;;;;2.80;1.47;;;9.40;63.00;;;;;;5053531;28;20231;-91
2021/11/01 23:39:10;;;;;;;1.80;1.70;;;9.40;63.30;;;;;;5054209;28;20773;-91
2021/11/01 23:41:37;;;;;;;1.73;1.50;;;9.40;63.70;;;;;;5053599;28;20979;-92
2021/11/01 23:44:03;;;;;;;2.93;2.53;;;9.50;63.20;;;;;;5053460;28;20896;-91
2021/11/01 23:46:29;;;;;;;2.73;1.57;;;9.50;62.70;;;;;;5052869;28;20514;-91
2021/11/01 23:48:55;;;;;;;1.93;1.83;;;9.50;62.40;;;;;;5037203;28;20443;-92
2021/11/01 23:51:30;;;;;;;2.17;1.60;;;9.50;62.40;;;;;;5052961;28;20185;-91
2021/11/01 23:56:35;;;;;;;2.53;2.00;;;9.50;62.20;;;;;;5037945;28;20404;-91
2021/11/01 23:59:00;;;;;;;2.10;1.90;;;9.50;63.00;;;;;;5053014;28;20862;-90
